Terminal Aerodrome Forecast
Issued by NWS Wilmington, OH

Current Version | Previous Version | Text Only | Print | Product List | Glossary Off
Versions: 1 2 3 4 5 6 7 8 9 10 11 12 13 14 15

000
FTUS41 KILN 201700
TAFCMH
TAF
KCMH 201730Z 2018/2118 03008KT P6SM SCT040 BKN120
     FM210100 04008KT P6SM VCSH OVC060
     FM210600 02007KT P6SM VCSH OVC035
     FM211400 01008KT P6SM BKN035=

USA.gov is the U.S. government's official web portal to all federal, state and local government web resources and services.